createdAt,value
2019-05-23T00:01:09.496Z,5.80
2019-05-23T00:05:47.865Z,5.33
2019-05-23T00:10:32.033Z,5.50
2019-05-23T00:15:14.551Z,6.70
2019-05-23T00:19:55.649Z,5.50
2019-05-23T00:24:36.448Z,5.20
2019-05-23T00:29:22.280Z,6.93
2019-05-23T00:34:02.427Z,8.27
2019-05-23T00:38:12.903Z,10.67
2019-05-23T00:42:53.162Z,11.00
2019-05-23T00:47:32.649Z,8.37
2019-05-23T00:52:15.083Z,6.70
2019-05-23T00:56:58.127Z,7.27
2019-05-23T01:01:38.553Z,9.60
2019-05-23T01:05:42.572Z,5.87
2019-05-23T01:10:22.436Z,6.37
2019-05-23T01:15:02.939Z,6.80
2019-05-23T01:19:43.055Z,7.53
2019-05-23T01:24:39.069Z,5.83
2019-05-23T01:29:19.018Z,6.40
2019-05-23T01:33:59.946Z,7.33
2019-05-23T01:38:31.402Z,6.13
2019-05-23T01:43:14.095Z,6.13
2019-05-23T01:47:53.658Z,5.87
2019-05-23T01:52:33.207Z,6.00
2019-05-23T01:57:13.903Z,6.60
2019-05-23T02:01:53.684Z,6.13
2019-05-23T02:05:57.219Z,9.97
2019-05-23T02:10:36.630Z,7.33
2019-05-23T02:15:16.310Z,11.27
2019-05-23T02:19:56.334Z,9.67
2019-05-23T02:24:35.693Z,8.70
2019-05-23T02:29:18.269Z,8.17
2019-05-23T02:33:59.617Z,9.27
2019-05-23T02:39:04.537Z,7.87
2019-05-23T02:43:47.141Z,7.77
2019-05-23T02:48:31.619Z,7.40
2019-05-23T02:53:12.494Z,10.50
2019-05-23T02:57:55.307Z,6.73
2019-05-23T03:02:43.112Z,6.47
2019-05-23T03:06:47.784Z,5.70
2019-05-23T03:11:35.235Z,10.10
2019-05-23T03:16:14.995Z,7.73
2019-05-23T03:20:55.276Z,6.93
2019-05-23T03:25:34.986Z,6.97
2019-05-23T03:30:20.616Z,6.17
2019-05-23T03:35:18.663Z,6.83
2019-05-23T03:39:22.741Z,7.50
2019-05-23T03:44:02.732Z,6.40
2019-05-23T03:48:41.915Z,10.93
2019-05-23T03:53:23.392Z,9.80
2019-05-23T03:58:04.766Z,9.27
2019-05-23T04:02:49.185Z,12.33
2019-05-23T04:07:30.312Z,10.40
2019-05-23T04:11:35.116Z,9.53
2019-05-23T04:16:15.194Z,8.57
2019-05-23T04:20:54.792Z,9.60
2019-05-23T04:25:34.116Z,10.97
2019-05-23T04:30:13.601Z,11.27
2019-05-23T04:34:52.996Z,11.33
2019-05-23T04:39:26.587Z,11.37
2019-05-23T04:44:06.753Z,12.83
2019-05-23T04:48:46.391Z,13.50
2019-05-23T04:53:25.910Z,14.70
2019-05-23T04:58:06.171Z,19.03
2019-05-23T05:02:45.642Z,17.33
2019-05-23T05:07:25.149Z,14.50
2019-05-23T05:11:30.463Z,18.50
2019-05-23T05:16:09.574Z,15.13
2019-05-23T05:20:49.013Z,14.50
2019-05-23T05:25:28.793Z,19.90
2019-05-23T05:30:08.029Z,16.20
2019-05-23T05:34:47.239Z,19.50
2019-05-23T05:39:26.488Z,18.80
2019-05-23T05:44:06.466Z,20.20
2019-05-23T05:48:46.321Z,25.67
2019-05-23T05:53:26.055Z,19.13
2019-05-23T05:58:06.057Z,19.30
2019-05-23T06:03:02.872Z,24.03
2019-05-23T06:07:34.098Z,19.20
2019-05-23T06:11:37.100Z,22.40
2019-05-23T06:16:16.420Z,21.20
2019-05-23T06:20:56.006Z,18.03
2019-05-23T06:25:38.289Z,16.20
2019-05-23T06:30:21.147Z,12.67
2019-05-23T06:35:04.458Z,11.43
2019-05-23T06:39:43.687Z,9.97
2019-05-23T06:44:26.648Z,7.70
2019-05-23T06:49:06.220Z,8.37
2019-05-23T06:53:45.420Z,8.00
2019-05-23T06:58:33.806Z,8.40
2019-05-23T07:03:13.181Z,8.67
2019-05-23T07:07:52.470Z,7.37
2019-05-23T07:11:58.417Z,7.60
2019-05-23T07:16:37.547Z,4.57
2019-05-23T07:21:16.920Z,13.53
2019-05-23T07:26:02.714Z,5.40
2019-05-23T07:30:42.024Z,3.40
2019-05-23T07:35:21.450Z,3.57
2019-05-23T07:40:00.816Z,6.40
2019-05-23T07:44:48.292Z,4.53
2019-05-23T07:49:22.855Z,4.00
2019-05-23T07:54:30.959Z,3.20
2019-05-23T07:59:10.530Z,2.40
2019-05-23T08:03:50.013Z,4.40
2019-05-23T08:08:30.194Z,3.00
2019-05-23T08:12:33.197Z,1.90
2019-05-23T08:17:16.506Z,3.93
2019-05-23T08:21:55.757Z,4.10
2019-05-23T08:26:38.723Z,2.40
2019-05-23T08:31:18.173Z,2.43
2019-05-23T08:35:57.577Z,4.00
2019-05-23T08:40:37.303Z,1.87
2019-05-23T08:45:19.737Z,2.43
2019-05-23T08:49:59.337Z,2.43
2019-05-23T08:54:39.052Z,3.83
2019-05-23T08:59:18.412Z,4.03
2019-05-23T09:04:01.512Z,2.00
2019-05-23T09:08:45.083Z,1.63
2019-05-23T09:12:48.292Z,3.67
2019-05-23T09:17:30.483Z,2.30
2019-05-23T09:22:09.636Z,3.80
2019-05-23T09:26:49.176Z,3.10
2019-05-23T09:31:28.752Z,2.30
2019-05-23T09:36:08.283Z,2.03
2019-05-23T09:40:48.042Z,1.93
2019-05-23T09:45:27.788Z,1.80
2019-05-23T09:50:08.201Z,1.93
2019-05-23T09:54:47.745Z,2.03
2019-05-23T09:59:29.242Z,4.30
2019-05-23T10:04:08.643Z,3.67
2019-05-23T10:08:48.050Z,3.23
2019-05-23T10:12:51.316Z,5.00
2019-05-23T10:17:33.778Z,2.07
2019-05-23T10:22:13.651Z,5.87
2019-05-23T10:26:52.979Z,3.00
2019-05-23T10:31:32.831Z,2.70
2019-05-23T10:36:12.280Z,2.93
2019-05-23T10:40:51.528Z,2.00
2019-05-23T10:45:34.162Z,2.50
2019-05-23T10:50:14.168Z,3.10
2019-05-23T10:54:53.303Z,3.13
2019-05-23T10:59:32.604Z,2.47
2019-05-23T11:04:16.786Z,2.70
2019-05-23T11:08:55.953Z,3.10
2019-05-23T11:12:58.889Z,2.60
2019-05-23T11:17:38.542Z,2.13
2019-05-23T11:22:21.565Z,2.23
2019-05-23T11:27:01.372Z,2.37
2019-05-23T11:31:45.116Z,2.60
2019-05-23T11:36:34.662Z,2.70
2019-05-23T11:41:05.946Z,2.70
2019-05-23T11:45:55.122Z,1.90
2019-05-23T11:50:34.572Z,2.23
2019-05-23T11:55:13.896Z,2.10
2019-05-23T11:59:53.743Z,3.57
2019-05-23T12:04:52.428Z,2.70
2019-05-23T12:09:34.985Z,5.87
2019-05-23T12:13:37.918Z,2.53
2019-05-23T12:18:17.502Z,2.93
2019-05-23T12:22:57.002Z,2.73
2019-05-23T12:27:36.436Z,2.43
2019-05-23T12:32:15.528Z,2.33
2019-05-23T12:37:14.188Z,3.63
2019-05-23T12:41:35.212Z,2.93
2019-05-23T12:46:13.961Z,3.60
2019-05-23T12:50:54.204Z,2.63
2019-05-23T12:55:33.635Z,3.17
2019-05-23T13:00:29.575Z,4.90
2019-05-23T13:05:09.877Z,4.20
2019-05-23T13:09:49.577Z,4.03
2019-05-23T13:13:52.556Z,2.60
2019-05-23T13:18:35.083Z,1.93
2019-05-23T13:23:20.903Z,2.17
2019-05-23T13:27:58.524Z,5.73
2019-05-23T13:32:36.508Z,2.40
2019-05-23T13:37:17.316Z,2.50
2019-05-23T13:41:59.834Z,2.40
2019-05-23T13:46:39.135Z,2.80
2019-05-23T13:51:18.297Z,2.23
2019-05-23T13:55:57.639Z,2.40
2019-05-23T14:00:37.906Z,2.00
2019-05-23T14:05:20.503Z,4.63
2019-05-23T14:09:59.746Z,3.53
2019-05-23T14:14:03.716Z,2.60
2019-05-23T14:18:43.920Z,5.03
2019-05-23T14:23:28.504Z,3.77
2019-05-23T14:28:11.680Z,2.87
2019-05-23T14:32:55.822Z,2.63
2019-05-23T14:37:40.758Z,2.60
2019-05-23T14:42:39.919Z,1.80
2019-05-23T14:52:39.286Z,2.50
2019-05-23T14:57:18.719Z,2.00
2019-05-23T15:01:58.353Z,4.77
2019-05-23T15:06:37.712Z,1.97
2019-05-23T15:11:16.928Z,2.70
2019-05-23T15:15:19.832Z,2.00
2019-05-23T15:19:59.083Z,3.57
2019-05-23T15:24:41.396Z,3.40
2019-05-23T15:29:20.439Z,2.00
2019-05-23T15:33:59.678Z,2.40
2019-05-23T15:38:38.739Z,4.03
2019-05-23T15:43:20.936Z,2.40
2019-05-23T15:48:00.122Z,2.80
2019-05-23T15:53:04.165Z,2.60
2019-05-23T15:57:47.226Z,4.23
2019-05-23T16:02:34.921Z,2.10
2019-05-23T16:07:14.455Z,2.10
2019-05-23T16:11:53.875Z,2.50
2019-05-23T16:15:57.782Z,2.67
2019-05-23T16:20:37.225Z,2.10
2019-05-23T16:25:16.364Z,2.20
2019-05-23T16:29:55.565Z,1.63
2019-05-23T16:34:35.575Z,2.73
2019-05-23T16:39:15.545Z,1.87
2019-05-23T16:43:54.984Z,1.70
2019-05-23T16:48:35.123Z,1.50
2019-05-23T16:53:14.603Z,1.87
2019-05-23T16:57:58.463Z,1.60
2019-05-23T17:02:54.834Z,2.40
2019-05-23T17:08:39.764Z,2.03
2019-05-23T17:12:48.829Z,1.50
2019-05-23T17:17:13.674Z,2.90
2019-05-23T17:21:35.831Z,1.87
2019-05-23T17:25:55.410Z,2.33
2019-05-23T17:30:24.156Z,1.30
2019-05-23T17:34:26.716Z,1.90
2019-05-23T17:38:29.391Z,2.80
2019-05-23T17:42:31.991Z,4.43
2019-05-23T17:46:34.903Z,1.33
2019-05-23T17:50:40.391Z,1.60
2019-05-23T17:54:43.069Z,2.20
2019-05-23T17:58:45.884Z,2.00
2019-05-23T18:02:48.396Z,1.70
2019-05-23T18:06:51.182Z,1.53
2019-05-23T18:10:54.335Z,1.27
2019-05-23T18:14:57.399Z,1.30
2019-05-23T18:19:00.205Z,1.60
2019-05-23T18:23:03.973Z,1.20
2019-05-23T18:27:08.290Z,2.07
2019-05-23T18:31:14.882Z,1.83
2019-05-23T18:35:21.066Z,1.23
2019-05-23T18:39:23.906Z,1.10
2019-05-23T18:43:30.459Z,2.27
2019-05-23T18:47:38.286Z,2.93
2019-05-23T18:51:41.415Z,1.90
2019-05-23T18:55:44.781Z,2.47
2019-05-23T18:59:47.734Z,1.47
2019-05-23T19:03:50.273Z,5.90
2019-05-23T19:07:53.398Z,1.67
2019-05-23T19:11:56.682Z,1.60
2019-05-23T19:15:59.249Z,1.93
2019-05-23T19:20:01.836Z,1.70
2019-05-23T19:24:04.651Z,2.00
2019-05-23T19:28:08.468Z,1.73
2019-05-23T19:32:11.374Z,2.07
2019-05-23T19:36:14.643Z,2.03
2019-05-23T19:40:17.634Z,1.90
2019-05-23T19:44:23.060Z,3.53
2019-05-23T19:48:26.289Z,2.10
2019-05-23T19:52:28.852Z,3.00
2019-05-23T19:56:31.908Z,6.00
2019-05-23T20:00:39.771Z,2.13
2019-05-23T20:04:46.201Z,3.40
2019-05-23T20:08:48.870Z,2.50
2019-05-23T20:12:51.609Z,2.27
2019-05-23T20:16:54.214Z,2.50
2019-05-23T20:20:57.447Z,3.00
2019-05-23T20:25:03.759Z,2.43
2019-05-23T20:29:06.806Z,2.40
2019-05-23T20:33:09.374Z,5.27
2019-05-23T20:37:12.222Z,4.70
2019-05-23T20:41:15.172Z,5.17
2019-05-23T20:45:17.724Z,4.00
2019-05-23T20:49:20.290Z,5.30
2019-05-23T20:53:22.897Z,3.40
2019-05-23T20:57:25.479Z,5.30
2019-05-23T21:01:32.358Z,3.87
2019-05-23T21:05:35.295Z,3.33
2019-05-23T21:09:37.870Z,3.97
2019-05-23T21:13:40.445Z,4.33
2019-05-23T21:17:43.030Z,5.23
2019-05-23T21:21:54.707Z,4.03
2019-05-23T21:26:03.826Z,3.40
2019-05-23T21:30:06.481Z,3.40
2019-05-23T21:34:09.070Z,4.33
2019-05-23T21:38:11.626Z,3.43
2019-05-23T21:42:14.727Z,4.90
2019-05-23T21:46:17.278Z,5.03
2019-05-23T21:50:19.807Z,7.80
2019-05-23T21:54:22.350Z,3.47
2019-05-23T21:58:25.000Z,4.03
2019-05-23T22:02:35.502Z,3.60
2019-05-23T22:06:39.269Z,3.80
2019-05-23T22:10:41.933Z,6.70
2019-05-23T22:14:46.022Z,3.23
2019-05-23T22:18:50.026Z,3.90
2019-05-23T22:22:52.778Z,3.30
2019-05-23T22:26:55.308Z,3.80
2019-05-23T22:30:57.851Z,2.50
2019-05-23T22:35:11.498Z,2.60
2019-05-23T22:39:14.434Z,4.73
2019-05-23T22:43:21.017Z,4.73
2019-05-23T22:47:22.017Z,2.30
2019-05-23T22:51:24.570Z,2.33
2019-05-23T22:55:27.201Z,3.60
2019-05-23T22:59:29.813Z,2.83
2019-05-23T23:03:32.786Z,3.30
2019-05-23T23:07:35.267Z,2.53
2019-05-23T23:11:37.969Z,6.03
2019-05-23T23:15:40.664Z,4.90
2019-05-23T23:19:43.296Z,2.97
2019-05-23T23:23:45.845Z,2.00
2019-05-23T23:27:51.197Z,2.67
2019-05-23T23:31:57.194Z,2.60
2019-05-23T23:36:02.723Z,2.97
2019-05-23T23:40:09.242Z,3.00
2019-05-23T23:44:12.547Z,3.00
2019-05-23T23:48:36.287Z,2.90
2019-05-23T23:52:57.233Z,2.90
2019-05-23T23:57:18.295Z,2.57
